Walkertown, NC (27051)

2:28 PM EDT on July 05, 2015 (GMT -0400)
Breyerton Subdivision | | Change Station
CLOSE
Current Station
Personal Weather Station
Location: Kernersville, NC
Elevation: 820 ft
Nearby Weather Stations

Elev 820 ft 36.16 °N, 80.10 °W | Updated 2 seconds ago

Overcast
Overcast
83.8 °F
Feels Like 90 °F
N
1.0
Wind Variable Wind from South
Gusts 2.0 mph

Today
High -- | Low -- °F
--% Chance of Precip.
Yesterday
High -- | Low -- °F
Precip. -- in
6:08 AM 8:41 PM
Waning Gibbous, 83% visible
Pressure 30.08 in
Visibility 10.0 miles
Clouds Few 3300 ft
Scattered Clouds 5000 ft
Mostly Cloudy 11000 ft
Heat Index 90 °F
Dew Point 73 °F
Humidity 71%
Rainfall 0.00 in
Snow Depth Not available.
UV 5.2 out of 12
Pollen .90 out of 12
Air Quality Not available.
Flu Activity Not available.
METAR KINT 051754Z 17006KT 10SM FEW033 SCT050 BKN110 28/20 A3011 RMK AO2 SLP186 T02830200 10289 20228 58009

More Conditions Fewer Conditions

Pressure 30.08 in
Visibility 10.0 miles
Clouds Few 3300 ft
Scattered Clouds 5000 ft
Mostly Cloudy 11000 ft
Heat Index 90 °F
Dew Point 73 °F
Humidity 71%
Rainfall 0.00 in
Snow Depth Not available.
UV 5.2 out of 12
Pollen .90 out of 12
Air Quality Not available.
Flu Activity Not available.
METAR KINT 051754Z 17006KT 10SM FEW033 SCT050 BKN110 28/20 A3011 RMK AO2 SLP186 T02830200 10289 20228 58009

More Conditions Fewer Conditions

10-Day Weather Forecast

×

Almanac

Astronomy

Jul. 05, 2015 Rise Set
Actual Time
Civil Twilight
Nautical Twilight
Astronomical Twilight
Moon
Length of Visible Light
Length of Day
Tomorrow will be .
, % of the Moon is Illuminated

Today's Extremes

State Highs State Lows

Community

WunderPhotos

Upload Photos

1,835,343 photos uploaded!

WunderBlogs® & News

Nearby

Air Quality

  Air Quality AQ Index Pollutant
Not available.

Snow Depth

Station Depth Elevation

Earthquake Activity

City Distance Mag. Time & Date
Minimum magnitude displayed is 2.5.

Coastal Water Temperatures

Place Temperature

Stations

Nearby Weather Stations

Station Location Temp. Windchill Dew Point Humidity Wind Precip. Elev Updated Type